Time;durP1;ratioP1;P1;durP2;ratioP2;P2;SDS_P1;SDS_P2;PMS_P1;PMS_P2;Temp;Humidity;BMP_temperature;BMP_pressure;BME280_temperature;BME280_humidity;BME280_pressure;Samples;Min_cycle;Max_cycle;Signal;HPM_P1;HPM_P2
2022/08/07 00:00:52;;;;;;;64.68;43.55;;;;;;;23.21;61.20;94571.88;5029689;28;20175;-74
2022/08/07 00:03:18;;;;;;;48.85;38.53;;;;;;;23.42;61.25;94607.25;5029722;28;20171;-74
2022/08/07 00:05:43;;;;;;;41.03;35.75;;;;;;;23.35;61.54;94592.59;5029847;28;20275;-74
2022/08/07 00:08:09;;;;;;;55.33;46.28;;;;;;;23.45;61.16;94603.94;5029783;28;20238;-74
2022/08/07 00:10:35;;;;;;;59.92;50.30;;;;;;;23.43;60.75;94600.78;5029805;28;20595;-74
2022/08/07 00:13:04;;;;;;;56.53;50.75;;;;;;;23.38;60.75;94600.84;5023916;28;20180;-74
2022/08/07 00:15:31;;;;;;;43.78;39.33;;;;;;;23.41;60.80;94602.94;5009994;28;20219;-74
2022/08/07 00:17:57;;;;;;;44.95;40.33;;;;;;;23.24;61.03;94579.34;5009875;28;20176;-75
2022/08/07 00:20:23;;;;;;;45.28;40.85;;;;;;;23.33;60.99;94606.34;5009920;28;20177;-75
2022/08/07 00:22:48;;;;;;;26.63;24.08;;;;;;;23.29;61.03;94602.63;5029236;28;20577;-75
2022/08/07 00:25:14;;;;;;;24.10;16.17;;;;;;;23.27;61.32;94602.91;5012338;28;20247;-75
2022/08/07 00:27:39;;;;;;;12.13;10.80;;;;;;;23.23;61.59;94606.50;5032316;28;20270;-75
2022/08/07 00:30:05;;;;;;;13.05;8.77;;;;;;;23.19;61.84;94610.88;5013515;28;20188;-75
2022/08/07 00:32:31;;;;;;;9.63;7.22;;;;;;;23.13;61.94;94612.84;5013511;28;20239;-75
2022/08/07 00:34:56;;;;;;;10.88;6.90;;;;;;;23.09;62.48;94616.44;5013392;28;20945;-75
2022/08/07 00:37:23;;;;;;;10.75;6.82;;;;;;;22.99;62.62;94617.41;5013244;28;20194;-75
2022/08/07 00:39:49;;;;;;;10.07;6.93;;;;;;;22.73;62.79;94603.56;5013179;28;20188;-75
2022/08/07 00:42:15;;;;;;;11.70;7.30;;;;;;;22.78;63.02;94606.19;5013195;28;20172;-75
2022/08/07 00:44:40;;;;;;;6.65;5.93;;;;;;;22.71;62.43;94595.00;5013274;28;20183;-75
2022/08/07 00:47:07;;;;;;;9.40;6.53;;;;;;;22.86;63.12;94605.50;5012951;28;20616;-75
2022/08/07 00:49:32;;;;;;;9.93;6.80;;;;;;;22.95;63.45;94613.69;5013016;28;20192;-75
2022/08/07 00:51:58;;;;;;;9.82;6.60;;;;;;;22.89;63.52;94599.56;5012969;28;20172;-75
2022/08/07 00:54:24;;;;;;;7.78;6.45;;;;;;;22.97;62.99;94606.16;5000711;28;20192;-75
2022/08/07 00:56:50;;;;;;;10.10;6.70;;;;;;;22.95;63.34;94617.19;4993224;28;20263;-74
2022/08/07 00:59:16;;;;;;;9.93;7.05;;;;;;;22.90;63.29;94622.66;4993213;28;20555;-74
2022/08/07 01:01:42;;;;;;;10.90;7.35;;;;;;;22.62;63.64;94593.28;4993406;28;20184;-75
2022/08/07 01:04:08;;;;;;;9.13;5.38;;;;;;;22.69;63.49;94618.66;4993156;28;20165;-74
2022/08/07 01:06:33;;;;;;;10.65;6.63;;;;;;;22.68;63.50;94616.25;4993041;28;20169;-75
2022/08/07 01:09:00;;;;;;;9.18;5.43;;;;;;;22.60;63.84;94598.94;4992980;28;20227;-74
2022/08/07 01:11:26;;;;;;;9.30;6.18;;;;;;;22.51;63.40;94582.69;4992934;28;20199;-74
2022/08/07 01:13:51;;;;;;;12.80;6.95;;;;;;;22.79;64.20;94617.72;4992995;28;20181;-74
2022/08/07 01:16:17;;;;;;;14.95;5.95;;;;;;;22.80;63.95;94620.13;4992905;28;20193;-74
2022/08/07 01:18:43;;;;;;;8.20;5.68;;;;;;;22.76;63.98;94616.41;4992921;28;20607;-74
2022/08/07 01:21:20;;;;;;;9.48;5.68;;;;;;;22.62;64.54;94618.22;4992995;28;20177;-74
2022/08/07 01:23:46;;;;;;;9.00;5.28;;;;;;;22.61;64.41;94635.41;4992550;28;20204;-74
2022/08/07 01:26:15;;;;;;;17.20;6.20;;;;;;;22.59;64.86;94627.66;4992568;28;20177;-74
2022/08/07 01:28:42;;;;;;;9.27;5.65;;;;;;;22.59;64.43;94634.91;5001297;28;20220;-74
2022/08/07 01:31:08;;;;;;;9.02;6.35;;;;;;;22.56;64.60;94638.97;5012220;28;20252;-74
2022/08/07 01:33:34;;;;;;;12.82;8.70;;;;;;;22.56;64.10;94635.50;5012225;28;20180;-74
2022/08/07 01:36:01;;;;;;;13.18;9.00;;;;;;;22.47;64.24;94624.63;5011994;28;20193;-74
2022/08/07 01:38:27;;;;;;;12.98;8.57;;;;;;;22.44;64.19;94622.50;5010711;28;20189;-74
2022/08/07 01:40:56;;;;;;;13.30;8.57;;;;;;;22.50;64.38;94628.59;5011944;28;20653;-74
2022/08/07 01:43:22;;;;;;;12.65;8.55;;;;;;;22.42;64.41;94619.31;5011894;28;20183;-74
2022/08/07 01:45:48;;;;;;;13.13;9.27;;;;;;;22.51;64.18;94643.59;5012032;28;20207;-74
2022/08/07 01:48:14;;;;;;;12.27;8.90;;;;;;;22.52;64.46;94642.53;5017119;28;20576;-74
2022/08/07 01:50:39;;;;;;;11.88;8.35;;;;;;;22.54;64.25;94659.13;5031447;28;20187;-74
2022/08/07 01:53:06;;;;;;;14.00;9.02;;;;;;;22.49;64.49;94656.50;5031329;28;20623;-74
2022/08/07 01:55:41;;;;;;;12.00;7.63;;;;;;;22.62;64.28;94679.16;5031288;28;20233;-74
2022/08/07 01:58:09;;;;;;;11.50;7.72;;;;;;;22.50;64.33;94671.53;5031584;28;20171;-74
2022/08/07 02:00:36;;;;;;;10.23;6.63;;;;;;;22.63;63.84;94715.63;5031501;28;20214;-74
2022/08/07 02:03:14;;;;;;;8.88;6.65;;;;;;;22.56;64.11;94732.09;5031490;28;20168;-74
2022/08/07 02:06:11;;;;;;;10.35;6.50;;;;;;;22.57;64.03;94725.66;5015386;28;20180;-74
2022/08/07 02:08:40;;;;;;;10.40;6.20;;;;;;;22.55;64.33;94725.94;4995795;28;20196;-74
2022/08/07 02:11:07;;;;;;;12.07;6.15;;;;;;;22.54;64.55;94712.81;5011376;28;20231;-74
2022/08/07 02:13:35;;;;;;;8.23;6.47;;;;;;;22.47;66.26;94707.00;5011390;28;20182;-74
2022/08/07 02:16:03;;;;;;;11.65;6.05;;;;;;;22.71;65.51;94731.09;5011143;28;20295;-74
2022/08/07 02:18:30;;;;;;;9.20;5.82;;;;;;;22.74;65.39;94734.03;5011354;28;20184;-74
2022/08/07 02:20:58;;;;;;;8.85;5.90;;;;;;;22.53;65.56;94708.53;5011228;28;20203;-74
2022/08/07 02:23:26;;;;;;;9.70;5.70;;;;;;;22.61;66.68;94717.81;5011236;28;20169;-74
2022/08/07 02:25:52;;;;;;;7.75;5.22;;;;;;;22.75;67.27;94735.59;5011275;28;20172;-74
2022/08/07 02:28:19;;;;;;;7.10;5.82;;;;;;;22.71;67.99;94713.09;5018752;28;20224;-75
2022/08/07 02:30:46;;;;;;;11.70;6.20;;;;;;;22.57;69.48;94706.88;5030939;28;20265;-74
2022/08/07 02:33:13;;;;;;;19.02;6.75;;;;;;;22.25;72.51;94687.97;5030720;28;20175;-74
2022/08/07 02:35:40;;;;;;;8.45;6.13;;;;;;;21.95;75.11;94676.50;5030746;28;20215;-74
2022/08/07 02:38:07;;;;;;;101.72;15.70;;;;;;;21.48;76.67;94645.13;5013140;28;20263;-74
2022/08/07 02:40:34;;;;;;;41.38;8.15;;;;;;;21.27;77.87;94654.44;5030842;28;20167;-74
2022/08/07 02:43:01;;;;;;;73.25;20.45;;;;;;;21.33;77.84;94656.00;5030981;28;20174;-74
2022/08/07 02:45:29;;;;;;;60.63;19.00;;;;;;;21.21;77.48;94626.09;5030612;28;20695;-74
2022/08/07 02:47:55;;;;;;;62.30;20.30;;;;;;;21.43;76.33;94656.69;5030435;28;20184;-74
2022/08/07 02:50:21;;;;;;;58.85;19.80;;;;;;;21.69;75.45;94661.78;5030567;28;20172;-74
2022/08/07 02:53:00;;;;;;;58.03;23.10;;;;;;;21.72;74.81;94642.44;5030380;28;20175;-74
2022/08/07 02:55:29;;;;;;;57.70;20.60;;;;;;;22.09;76.04;94664.00;5012525;28;20180;-74
2022/08/07 02:58:01;;;;;;;57.20;16.15;;;;;;;22.24;77.01;94663.03;5030614;28;20190;-74
2022/08/07 03:00:29;;;;;;;57.17;17.27;;;;;;;22.33;77.45;94663.16;5018766;28;20177;-74
2022/08/07 03:02:55;;;;;;;56.83;18.90;;;;;;;22.27;77.34;94643.69;5008766;28;20176;-74
2022/08/07 03:05:23;;;;;;;58.05;18.50;;;;;;;22.33;77.46;94637.16;5010781;28;20204;-75
2022/08/07 03:07:49;;;;;;;57.45;14.93;;;;;;;22.41;77.53;94633.00;5010711;28;20172;-75
2022/08/07 03:10:16;;;;;;;59.15;17.90;;;;;;;22.38;77.87;94623.69;5010755;28;20184;-74
2022/08/07 03:12:44;;;;;;;58.42;19.83;;;;;;;22.48;78.45;94634.28;5019358;28;20663;-74
2022/08/07 03:15:11;;;;;;;59.65;16.23;;;;;;;22.53;79.69;94644.91;5010771;28;20238;-74
2022/08/07 03:17:36;;;;;;;58.63;15.13;;;;;;;22.53;79.85;94636.06;5016608;28;20195;-73
2022/08/07 03:20:04;;;;;;;50.78;9.55;;;;;;;22.42;79.96;94622.00;5030279;28;20721;-74
2022/08/07 03:22:30;;;;;;;60.15;14.07;;;;;;;22.56;77.97;94648.91;5030038;28;20171;-75
2022/08/07 03:24:58;;;;;;;53.83;10.55;;;;;;;22.52;78.67;94646.00;5030210;28;20254;-75
2022/08/07 03:27:25;;;;;;;58.63;13.13;;;;;;;22.56;79.32;94647.03;5030262;28;20211;-74
2022/08/07 03:29:51;;;;;;;26.52;7.75;;;;;;;22.61;78.80;94646.16;5030120;28;20219;-75
2022/08/07 03:32:24;;;;;;;41.60;9.30;;;;;;;22.65;78.75;94647.16;5018547;28;20180;-75
2022/08/07 03:34:52;;;;;;;9.30;6.72;;;;;;;22.68;78.68;94649.25;5010586;28;20179;-75
2022/08/07 03:37:21;;;;;;;48.08;9.63;;;;;;;22.67;78.75;94647.66;5010597;28;20207;-74
2022/08/07 03:39:47;;;;;;;9.18;6.32;;;;;;;22.63;78.83;94643.97;5010470;28;20184;-74
2022/08/07 03:42:15;;;;;;;37.58;7.90;;;;;;;22.70;78.98;94646.28;5010670;28;20185;-74
2022/08/07 03:44:41;;;;;;;45.67;9.68;;;;;;;22.74;78.28;94650.00;5010398;28;20184;-75
2022/08/07 03:47:07;;;;;;;48.30;11.48;;;;;;;22.69;78.79;94640.13;5010582;28;20180;-75
2022/08/07 03:49:33;;;;;;;11.10;7.57;;;;;;;22.71;78.66;94647.88;5010566;28;20183;-74
2022/08/07 03:52:00;;;;;;;9.13;6.60;;;;;;;22.76;79.41;94669.31;5010542;28;20180;-75
2022/08/07 03:54:26;;;;;;;11.80;8.48;;;;;;;22.63;79.60;94646.66;5010507;28;20211;-75
2022/08/07 03:56:53;;;;;;;9.95;7.05;;;;;;;22.64;79.19;94652.81;5010113;28;20673;-75
2022/08/07 03:59:19;;;;;;;10.73;7.00;;;;;;;22.63;79.94;94676.19;5010005;28;20204;-74
2022/08/07 04:01:45;;;;;;;8.27;6.70;;;;;;;22.65;80.09;94682.06;5018132;28;20789;-74
2022/08/07 04:04:14;;;;;;;8.00;6.65;;;;;;;22.56;79.57;94670.38;5016307;28;20185;-74
2022/08/07 04:06:39;;;;;;;6.57;5.88;;;;;;;22.64;80.35;94676.97;5013754;28;20184;-74
2022/08/07 04:09:06;;;;;;;9.32;6.75;;;;;;;22.73;80.14;94667.97;5013986;28;20180;-74
2022/08/07 04:11:33;;;;;;;9.07;7.63;;;;;;;22.61;80.66;94666.81;5019203;28;20199;-74
2022/08/07 04:14:01;;;;;;;11.18;7.90;;;;;;;22.58;80.43;94674.34;5022709;28;20206;-74
2022/08/07 04:16:27;;;;;;;8.75;6.45;;;;;;;22.79;79.77;94677.56;5013646;28;20200;-74
2022/08/07 04:18:52;;;;;;;10.48;7.18;;;;;;;22.97;78.64;94672.47;5013459;28;20634;-74
2022/08/07 04:21:18;;;;;;;11.18;6.90;;;;;;;23.15;78.20;94685.09;5013642;28;20229;-74
2022/08/07 04:23:44;;;;;;;8.40;7.00;;;;;;;23.32;77.36;94683.44;5013651;28;20212;-74
2022/08/07 04:26:10;;;;;;;11.88;8.63;;;;;;;23.49;77.36;94679.44;5013496;28;20227;-74
2022/08/07 04:28:35;;;;;;;9.82;6.35;;;;;;;23.52;75.76;94687.72;4996328;28;20267;-74
2022/08/07 04:31:01;;;;;;;6.88;5.90;;;;;;;23.37;76.41;94677.19;5011940;28;20680;-74
2022/08/07 04:33:27;;;;;;;6.28;5.45;;;;;;;23.35;75.44;94692.81;5014786;28;20325;-74
2022/08/07 04:35:54;;;;;;;7.32;5.80;;;;;;;23.29;75.41;94688.59;5013127;28;20196;-73
2022/08/07 04:38:20;;;;;;;7.22;5.95;;;;;;;23.46;77.49;94699.59;5012972;28;20219;-74
2022/08/07 04:40:46;;;;;;;8.05;6.07;;;;;;;23.55;77.60;94705.91;5013165;28;20226;-74
2022/08/07 04:43:16;;;;;;;7.90;5.80;;;;;;;23.62;76.94;94700.94;5014338;28;20233;-73
2022/08/07 04:46:19;;;;;;;8.55;7.00;;;;;;;23.61;77.08;94704.72;5013884;28;20192;-73
2022/08/07 04:49:06;;;;;;;11.05;8.93;;;;;;;23.67;77.32;94698.19;4995364;28;20192;-73
2022/08/07 04:51:53;;;;;;;13.13;9.57;;;;;;;23.73;76.42;94696.19;5030035;28;20242;-74
2022/08/07 04:54:38;;;;;;;14.45;9.40;;;;;;;23.80;75.23;94696.59;5032707;28;20180;-74
2022/08/07 04:57:29;;;;;;;15.80;8.98;;;;;;;23.97;74.64;94707.56;5032512;28;20192;-74
2022/08/07 04:59:57;;;;;;;10.40;6.47;;;;;;;24.11;73.85;94707.59;4996691;28;20222;-74
2022/08/07 05:02:29;;;;;;;8.15;6.45;;;;;;;24.29;73.02;94720.16;5010726;28;20192;-73
2022/08/07 05:05:05;;;;;;;13.43;8.27;;;;;;;24.66;72.37;94712.91;5013916;28;20555;-74
2022/08/07 05:07:37;;;;;;;8.23;5.88;;;;;;;25.60;69.47;94720.22;5011650;28;20180;-74
2022/08/07 05:10:02;;;;;;;7.35;5.88;;;;;;;26.66;65.36;94737.03;5012754;28;20969;-74
2022/08/07 05:12:35;;;;;;;56.83;15.77;;;;;;;27.26;61.36;94736.31;5023134;28;20251;-74
2022/08/07 05:15:18;;;;;;;55.72;16.50;;;;;;;27.30;61.54;94733.78;5012328;28;20180;-74
2022/08/07 05:17:50;;;;;;;60.13;16.40;;;;;;;27.29;60.81;94737.59;5011303;28;20200;-75
2022/08/07 05:20:20;;;;;;;56.00;16.33;;;;;;;27.97;60.16;94734.00;5012424;28;20211;-75
2022/08/07 05:22:48;;;;;;;56.10;14.82;;;;;;;29.26;55.36;94737.97;5015860;28;20246;-75
2022/08/07 05:25:15;;;;;;;59.40;14.70;;;;;;;30.37;53.32;94725.19;5015622;28;20176;-75
2022/08/07 05:27:43;;;;;;;56.95;12.52;;;;;;;31.53;49.15;94741.97;5012419;28;20197;-75
2022/08/07 05:30:09;;;;;;;61.78;10.05;;;;;;;32.36;46.18;94724.75;4995294;28;20315;-75
2022/08/07 05:32:36;;;;;;;60.53;13.25;;;;;;;33.18;44.52;94736.44;5012027;28;20271;-75
2022/08/07 05:35:02;;;;;;;58.92;11.65;;;;;;;34.18;41.73;94741.16;5014483;28;20184;-75
2022/08/07 05:37:29;;;;;;;59.53;11.10;;;;;;;34.53;40.37;94722.66;5003414;28;20254;-75
2022/08/07 05:39:55;;;;;;;58.78;9.30;;;;;;;34.37;39.88;94732.94;5011829;28;20215;-74
2022/08/07 05:42:21;;;;;;;50.60;7.20;;;;;;;34.99;39.46;94739.81;5011939;28;20595;-74
2022/08/07 05:44:48;;;;;;;58.65;7.72;;;;;;;35.85;38.68;94758.22;5015592;28;20190;-78
2022/08/07 05:47:18;;;;;;;56.97;8.43;;;;;;;36.53;38.09;94756.97;5011086;28;20187;-76
2022/08/07 05:49:49;;;;;;;75.20;7.95;;;;;;;37.13;35.59;94760.19;5011439;28;20181;-75
2022/08/07 05:52:15;;;;;;;11.50;6.25;;;;;;;37.68;34.76;94762.91;5010060;28;20176;-74
2022/08/07 05:54:41;;;;;;;5.05;4.60;;;;;;;38.17;34.01;94767.00;5011388;28;20180;-74
2022/08/07 05:57:07;;;;;;;8.35;4.38;;;;;;;38.09;33.86;94771.72;5026344;28;20213;-75
2022/08/07 05:59:37;;;;;;;8.50;4.30;;;;;;;37.20;33.66;94775.94;5030415;28;20720;-75
2022/08/07 06:02:08;;;;;;;6.95;4.50;;;;;;;36.72;35.38;94786.94;5028978;28;20168;-74
2022/08/07 06:04:39;;;;;;;5.72;5.10;;;;;;;36.59;35.80;94789.16;5029636;28;20175;-76
2022/08/07 06:07:05;;;;;;;7.18;5.32;;;;;;;36.59;36.12;94788.38;5029366;28;20247;-76
2022/08/07 06:09:31;;;;;;;88.75;81.40;;;;;;;36.80;36.05;94769.38;5028318;28;20692;-76
2022/08/07 06:11:57;;;;;;;1833.18;819.50;;;;;;;36.94;35.23;94794.19;5027652;28;20668;-76
2022/08/07 06:14:23;;;;;;;1999.90;999.90;;;;;;;36.51;34.47;94781.22;5027870;28;20184;-76
2022/08/07 06:16:50;;;;;;;1688.82;999.90;;;;;;;35.84;35.26;94787.56;5028098;28;20192;-76
2022/08/07 06:19:17;;;;;;;1733.63;999.90;;;;;;;35.38;36.52;94775.97;5029075;28;20185;-76
2022/08/07 06:21:45;;;;;;;1599.43;999.90;;;;;;;35.30;37.89;94787.22;5029338;28;20172;-76
2022/08/07 06:24:11;;;;;;;1985.18;999.90;;;;;;;35.25;36.50;94785.59;5029071;28;20194;-76
2022/08/07 06:26:41;;;;;;;1999.90;999.90;;;;;;;35.17;37.27;94770.97;5030143;28;20725;-76
2022/08/07 06:29:07;;;;;;;1999.90;999.90;;;;;;;35.17;36.03;94786.63;5029685;28;20254;-76
2022/08/07 06:31:32;;;;;;;1999.90;999.90;;;;;;;35.25;36.61;94793.81;5030246;28;20223;-76
2022/08/07 06:33:58;;;;;;;1999.90;999.90;;;;;;;35.08;36.86;94786.09;5030203;28;20610;-76
2022/08/07 06:36:25;;;;;;;1999.90;999.90;;;;;;;34.76;36.86;94760.97;5030095;28;20207;-76
2022/08/07 06:38:52;;;;;;;1999.90;999.90;;;;;;;34.22;37.18;94772.09;5030104;28;20176;-76
2022/08/07 06:41:28;;;;;;;1999.90;999.90;;;;;;;34.12;38.24;94789.91;5029936;28;20190;-76
2022/08/07 06:43:56;;;;;;;1999.90;999.90;;;;;;;34.00;38.10;94779.09;5029884;28;20213;-76
2022/08/07 06:46:22;;;;;;;1999.90;999.90;;;;;;;33.41;39.37;94772.03;5029964;28;20183;-76
2022/08/07 06:48:48;;;;;;;1999.90;999.90;;;;;;;33.26;39.83;94781.09;5029585;28;20176;-76
2022/08/07 06:51:17;;;;;;;1186.97;999.90;;;;;;;32.92;40.52;94761.59;5029824;28;20175;-76
2022/08/07 06:53:43;;;;;;;1099.63;995.10;;;;;;;32.86;39.51;94741.19;5029553;28;20618;-76
2022/08/07 06:56:11;;;;;;;1949.78;999.90;;;;;;;32.61;39.81;94780.66;5029720;28;20250;-76
2022/08/07 06:58:39;;;;;;;1695.53;999.90;;;;;;;32.40;40.33;94772.78;5029869;28;20180;-76
2022/08/07 07:01:10;;;;;;;1276.93;999.90;;;;;;;32.25;40.27;94778.22;5029685;28;20175;-76
2022/08/07 07:03:38;;;;;;;1060.97;976.55;;;;;;;31.98;40.70;94783.31;5029624;28;20570;-76
2022/08/07 07:06:05;;;;;;;1019.20;917.05;;;;;;;32.27;42.12;94771.25;5029864;28;20180;-76
2022/08/07 07:08:31;;;;;;;1233.05;999.90;;;;;;;32.47;40.34;94786.56;5011743;28;20601;-76
2022/08/07 07:10:56;;;;;;;1106.95;998.50;;;;;;;32.66;39.80;94782.34;5012006;28;20245;-76
2022/08/07 07:13:29;;;;;;;1211.32;999.90;;;;;;;32.70;39.51;94775.06;5029546;28;20183;-76
2022/08/07 07:16:02;;;;;;;1999.90;999.90;;;;;;;32.75;39.32;94783.00;5029599;28;20688;-76
2022/08/07 07:18:40;;;;;;;1999.90;999.90;;;;;;;32.72;39.49;94780.97;5029546;28;20274;-76
2022/08/07 07:21:11;;;;;;;1999.90;999.90;;;;;;;31.97;40.89;94780.94;5029495;28;20191;-76
2022/08/07 07:23:37;;;;;;;1999.90;999.90;;;;;;;31.75;41.37;94785.78;5029574;28;20264;-76
2022/08/07 07:26:06;;;;;;;1999.90;999.90;;;;;;;31.63;41.63;94788.56;5029376;28;20631;-76
2022/08/07 07:28:38;;;;;;;887.65;541.25;;;;;;;31.78;42.63;94781.59;5029100;28;20678;-76
2022/08/07 07:31:17;;;;;;;9.40;8.50;;;;;;;31.56;42.73;94782.13;5011781;28;20573;-76
2022/08/07 07:33:45;;;;;;;6.72;6.13;;;;;;;31.66;42.55;94752.47;5029144;28;20186;-76
2022/08/07 07:36:10;;;;;;;1999.90;999.90;;;;;;;31.79;40.32;94786.69;5032958;28;20203;-76
2022/08/07 07:38:38;;;;;;;1999.90;999.90;;;;;;;31.79;40.38;94781.25;5033269;28;20190;-76
2022/08/07 07:41:06;;;;;;;1999.90;999.90;;;;;;;31.98;40.01;94786.06;5033793;28;20680;-75
2022/08/07 07:43:38;;;;;;;1999.90;999.90;;;;;;;32.27;39.31;94778.63;5030901;28;20570;-75
2022/08/07 07:46:05;;;;;;;1999.90;999.90;;;;;;;32.31;38.98;94780.31;5006327;28;20180;-75
2022/08/07 07:48:31;;;;;;;1999.90;999.90;;;;;;;32.11;38.86;94775.88;5010571;28;20188;-76
2022/08/07 07:50:59;;;;;;;1999.90;999.90;;;;;;;32.08;38.13;94779.31;5011453;28;20184;-75
2022/08/07 07:53:26;;;;;;;1999.90;999.90;;;;;;;31.90;39.08;94767.94;5005588;28;20204;-75
2022/08/07 07:55:55;;;;;;;1999.90;999.90;;;;;;;31.47;39.41;94785.78;5009059;28;20196;-76
2022/08/07 07:58:21;;;;;;;1999.90;999.90;;;;;;;31.01;39.90;94746.28;5014042;28;20184;-75
2022/08/07 08:00:48;;;;;;;1999.90;999.90;;;;;;;31.37;39.90;94774.56;5013914;28;20182;-75
2022/08/07 08:03:18;;;;;;;1999.90;999.90;;;;;;;31.14;40.62;94787.09;5013811;28;20199;-76
2022/08/07 08:05:43;;;;;;;1999.90;999.90;;;;;;;31.07;41.10;94788.44;5000642;28;20265;-75
2022/08/07 08:08:10;;;;;;;1999.90;999.90;;;;;;;31.04;41.39;94772.00;5009019;28;20274;-78
2022/08/07 08:10:37;;;;;;;1999.90;999.90;;;;;;;31.16;41.24;94792.97;5017176;28;20195;-76
2022/08/07 08:13:04;;;;;;;1999.90;999.90;;;;;;;31.52;40.86;94794.81;5015940;28;20191;-77
2022/08/07 08:15:35;;;;;;;250.40;232.02;;;;;;;31.08;41.45;94794.69;5005390;28;20235;-77
2022/08/07 08:18:02;;;;;;;78.10;73.57;;;;;;;30.89;41.50;94789.78;5006391;28;21326;-76
2022/08/07 08:20:31;;;;;;;353.30;335.80;;;;;;;30.26;42.64;94796.63;5001370;28;20179;-76
2022/08/07 08:28:34;;;;;;;9.40;8.35;;;;;;;30.79;42.32;94784.81;5011909;28;20301;-75
2022/08/07 08:31:02;;;;;;;12.48;8.75;;;;;;;31.26;41.73;94796.00;5006075;28;20176;-76
2022/08/07 08:33:32;;;;;;;760.65;709.33;;;;;;;31.47;39.81;94784.97;5009081;28;20177;-75
2022/08/07 08:36:00;;;;;;;1999.90;999.90;;;;;;;31.39;40.96;94800.31;5006103;28;20231;-75
2022/08/07 08:38:31;;;;;;;1999.90;999.90;;;;;;;31.33;41.01;94798.94;5009356;28;20192;-75
2022/08/07 08:41:04;;;;;;;1999.90;999.90;;;;;;;31.63;41.06;94783.13;5006780;28;20199;-75
2022/08/07 08:43:29;;;;;;;1964.20;999.90;;;;;;;32.11;39.71;94797.66;5009789;28;20203;-75
2022/08/07 08:46:05;;;;;;;1999.90;999.90;;;;;;;32.29;38.29;94771.69;5004326;28;20264;-75
2022/08/07 08:48:52;;;;;;;1999.90;999.90;;;;;;;32.54;38.66;94797.66;5005404;28;20206;-76
2022/08/07 08:51:31;;;;;;;1999.90;999.90;;;;;;;32.62;39.06;94806.81;5007474;28;20216;-76
2022/08/07 08:54:02;;;;;;;1999.90;999.90;;;;;;;32.85;37.70;94807.03;5004432;28;20172;-76
2022/08/07 08:56:43;;;;;;;1999.90;999.90;;;;;;;32.78;37.24;94793.22;5007956;28;20235;-76
2022/08/07 08:59:39;;;;;;;1999.90;999.90;;;;;;;32.45;38.27;94801.69;4992828;28;20180;-76
2022/08/07 09:02:12;;;;;;;1999.90;999.90;;;;;;;32.30;38.60;94794.31;5007990;28;20761;-76
2022/08/07 09:04:56;;;;;;;1999.90;999.90;;;;;;;32.49;38.87;94788.97;5003546;28;20184;-76
2022/08/07 09:07:35;;;;;;;1999.90;999.90;;;;;;;32.20;39.02;94766.41;5008909;28;20184;-77
2022/08/07 09:10:16;;;;;;;1999.90;999.90;;;;;;;32.77;38.85;94781.50;5007917;28;20180;-76
2022/08/07 09:13:09;;;;;;;1999.90;999.90;;;;;;;32.89;38.13;94783.31;4987892;28;20191;-77
2022/08/07 09:15:40;;;;;;;1999.90;999.90;;;;;;;32.72;38.27;94775.50;5007259;28;20180;-76
2022/08/07 09:18:40;;;;;;;1999.90;999.90;;;;;;;32.61;38.60;94792.38;5012286;28;20249;-76
2022/08/07 09:21:44;;;;;;;1999.90;999.90;;;;;;;32.10;38.20;94780.53;5016850;28;20609;-76
2022/08/07 09:24:33;;;;;;;1999.90;999.90;;;;;;;31.65;39.99;94789.03;4918229;28;20562;-76
2022/08/07 09:27:02;;;;;;;1999.90;999.90;;;;;;;31.42;39.92;94783.28;5008562;28;20251;-76
2022/08/07 09:29:51;;;;;;;1999.90;999.90;;;;;;;30.99;40.71;94773.00;5006975;28;20708;-76
2022/08/07 09:33:10;;;;;;;1999.90;999.90;;;;;;;31.08;39.99;94773.72;4995207;28;20187;-76
2022/08/07 09:35:48;;;;;;;1999.90;999.90;;;;;;;30.90;40.64;94757.94;4906414;29;20428;-76
2022/08/07 09:38:38;;;;;;;1999.90;999.90;;;;;;;30.81;40.79;94762.72;5008716;28;20195;-76
2022/08/07 09:41:27;;;;;;;1999.90;999.90;;;;;;;30.98;40.79;94762.47;4999377;28;20203;-76
2022/08/07 09:44:05;;;;;;;1999.90;999.90;;;;;;;31.21;39.85;94763.59;5002451;28;20743;-76
2022/08/07 09:46:46;;;;;;;1999.90;999.90;;;;;;;31.22;39.58;94762.47;5007523;28;20180;-76
2022/08/07 09:49:33;;;;;;;1999.90;999.90;;;;;;;31.43;39.25;94749.47;4989738;28;20190;-76
2022/08/07 09:52:10;;;;;;;1999.90;999.90;;;;;;;31.50;39.92;94760.56;5005068;28;20188;-76
2022/08/07 09:54:52;;;;;;;1999.90;999.90;;;;;;;31.49;39.53;94758.19;5008482;28;20188;-76
2022/08/07 09:57:46;;;;;;;1999.90;999.90;;;;;;;31.32;40.17;94761.19;5011477;28;20263;-77
2022/08/07 10:00:14;;;;;;;1999.90;999.90;;;;;;;31.37;40.24;94763.69;5009592;28;20211;-77
2022/08/07 10:03:04;;;;;;;1999.90;999.90;;;;;;;31.57;39.96;94751.78;5006662;28;20624;-77
2022/08/07 10:05:56;;;;;;;1999.90;999.90;;;;;;;31.39;38.06;94751.31;5004706;28;20195;-76
2022/08/07 10:09:00;;;;;;;1999.90;999.90;;;;;;;31.40;38.48;94747.44;5011088;28;20193;-77
2022/08/07 10:11:34;;;;;;;1999.90;999.90;;;;;;;31.57;39.62;94749.06;4999887;28;20206;-77
2022/08/07 10:14:25;;;;;;;1999.90;999.90;;;;;;;31.53;37.51;94747.41;5008597;28;20187;-76
2022/08/07 10:17:11;;;;;;;1999.90;999.90;;;;;;;31.61;37.67;94735.56;5001580;28;20215;-76
2022/08/07 10:19:52;;;;;;;1999.90;999.90;;;;;;;31.25;37.87;94750.88;5010571;28;20644;-76
2022/08/07 10:22:42;;;;;;;1999.90;999.90;;;;;;;30.92;38.85;94752.97;5003811;28;20185;-76
2022/08/07 10:25:32;;;;;;;1999.90;999.90;;;;;;;30.92;39.03;94734.72;5007981;28;20187;-76
2022/08/07 10:28:30;;;;;;;1999.90;999.90;;;;;;;31.20;38.57;94737.53;5003852;28;20215;-77
2022/08/07 10:31:17;;;;;;;1999.90;999.90;;;;;;;31.36;37.93;94737.59;4964539;28;20199;-75
2022/08/07 10:34:11;;;;;;;1999.90;999.90;;;;;;;31.28;38.42;94739.31;5005248;28;20195;-76
2022/08/07 10:36:58;;;;;;;1999.90;999.90;;;;;;;31.57;38.99;94738.19;5003430;28;20228;-77
2022/08/07 10:39:51;;;;;;;1999.90;999.90;;;;;;;31.68;38.78;94731.13;5007260;28;20171;-77
2022/08/07 10:42:33;;;;;;;1999.90;999.90;;;;;;;31.51;39.02;94742.31;5005619;28;20207;-77
2022/08/07 10:45:30;;;;;;;1999.90;999.90;;;;;;;31.45;39.56;94744.50;5011679;28;20950;-77
2022/08/07 10:48:11;;;;;;;1999.90;999.90;;;;;;;31.51;40.09;94753.19;5011870;28;20184;-76
2022/08/07 10:50:43;;;;;;;1999.90;999.90;;;;;;;31.46;39.42;94726.22;5010237;28;20192;-76
2022/08/07 10:53:33;;;;;;;1999.90;999.90;;;;;;;31.58;39.46;94739.78;5017652;28;20683;-76
2022/08/07 10:56:08;;;;;;;1999.90;999.90;;;;;;;31.55;39.32;94756.81;5014753;28;20251;-76
2022/08/07 10:58:52;;;;;;;1999.90;999.90;;;;;;;31.44;39.21;94753.00;5015480;28;20278;-77
2022/08/07 11:01:30;;;;;;;1999.90;999.90;;;;;;;31.33;39.33;94739.06;5005782;28;20215;-76
2022/08/07 11:04:04;;;;;;;1999.90;999.90;;;;;;;31.21;39.71;94744.56;5025501;28;20185;-77
2022/08/07 11:06:51;;;;;;;1999.90;999.90;;;;;;;30.77;39.59;94740.88;5015377;28;20179;-77
2022/08/07 11:09:23;;;;;;;1999.90;999.90;;;;;;;30.57;40.02;94750.72;5012901;28;20222;-76
2022/08/07 11:12:00;;;;;;;1999.90;999.90;;;;;;;30.22;41.06;94742.19;5006152;28;20207;-77
2022/08/07 11:14:47;;;;;;;1999.90;999.90;;;;;;;30.23;41.46;94745.69;5006276;28;20198;-76
2022/08/07 11:17:50;;;;;;;1999.90;999.90;;;;;;;30.49;41.34;94737.22;5007146;28;20243;-76
2022/08/07 11:20:42;;;;;;;1210.75;300.65;;;;;;;30.74;41.33;94738.81;4978834;28;20201;-76
2022/08/07 11:23:17;;;;;;;1999.90;999.90;;;;;;;30.62;41.14;94722.50;4973379;28;20223;-78
2022/08/07 11:25:53;;;;;;;1999.90;999.90;;;;;;;30.90;40.83;94726.09;5024530;28;20179;-74
2022/08/07 11:28:28;;;;;;;1999.90;999.90;;;;;;;30.88;40.28;94706.63;5012622;28;20262;-75
2022/08/07 11:31:03;;;;;;;1999.90;999.90;;;;;;;30.72;40.32;94727.50;5021331;28;20182;-76
2022/08/07 11:33:45;;;;;;;1999.90;999.90;;;;;;;30.29;40.95;94720.66;5015501;28;20649;-75
2022/08/07 11:36:39;;;;;;;1999.90;999.90;;;;;;;30.21;40.80;94728.94;5022072;28;20206;-77
2022/08/07 11:39:23;;;;;;;1999.90;999.90;;;;;;;30.22;41.69;94739.47;5005684;28;20187;-76